Glacier Park International Airport
KGPI : now visible

Airfield :











YOU CAN JOIN US ON...

 
LOGIN :

Register | Disclaimer

   EN    FR    IT 

 









Legend :    VFR   Marginal VFR   IFR   Intensive IFR   Very Intensive IFR
Visi :
Ceiling :
>= 8 km
>= 3000ft
5 to 8 km
1000 to 3000 ft
1500m to 5 km
500 to 1000 ft
800 to 1500m
200 to 500 ft
< 800m
< 200 ft
Symbols :   Thunderstorms  Fog  Heavy snow  Heavy precipitations  Wind > 20 kt






- Airport Elevation : 2977 ft
- IATA code : FCA


KGPI - Glacier Park International

CURRENT METAR :
  • 042302Z 00000KT 9SM OVC009 M01/M04 A3057 RMK AO2 T10111044

EXPIRED METARs :
  • 042203Z 21003KT 2SM HZ OVC009 M01/M04 A3055 RMK AO2 T10111044
  • 042155Z 00000KT 2SM HZ OVC010 M01/M04 A3056 RMK AO2 SLPNO T10111044
  • 042055Z 23003KT 2SM HZ OVC010 M01/M04 A3058 RMK AO2 SLPNO T10111044 50000

TAF KGPI
Valid from the 04 at 20:00 until the 05 at 18:00 UTC


042016Z 0420/0518 00000KT 2SM BR OVC010
FM050600 00000KT 2SM BR OVC008
FM051400 00000KT 2SM BR OVC006
KZLC FIR / North America



MET'MAP, your aeronautical weather chart ! - Copyright ORBIFLY December 2007 - Disclaimer

ORBIFLY MET'MAP TEAM :

Programming & Development : Alexandra Zaïnal
Concept & original design : Baudouin d'Aumeries
Assistance for programming : Marc-Olivier Méhu
Technical & hardware support : Manuel Goepfert

Contact : metmap@orbifly.com




SOURCES & CREDITS :

   NOAA       Earth
Advisory